Time;durP1;ratioP1;P1;durP2;ratioP2;P2;SDS_P1;SDS_P2;PMS_P1;PMS_P2;Temp;Humidity;BMP_temperature;BMP_pressure;BME280_temperature;BME280_humidity;BME280_pressure;Samples;Min_cycle;Max_cycle;Signal;HPM_P1;HPM_P2
2022/10/31 00:02:20;;;;;;;1.90;0.85;;;1.40;90.10;;;;;;5030854;28;20030;-79
2022/10/31 00:04:46;;;;;;;1.75;0.82;;;1.40;90.20;;;;;;5026614;28;20032;-80
2022/10/31 00:07:12;;;;;;;0.85;0.60;;;1.40;90.20;;;;;;5042629;28;20041;-80
2022/10/31 00:09:38;;;;;;;2.05;0.75;;;1.40;90.10;;;;;;5031957;28;20395;-81
2022/10/31 00:12:04;;;;;;;2.55;0.90;;;1.40;90.00;;;;;;5027650;28;20391;-82
2022/10/31 00:14:30;;;;;;;0.73;0.73;;;1.50;90.10;;;;;;5043024;28;20105;-81
2022/10/31 00:16:55;;;;;;;1.48;0.75;;;1.50;90.10;;;;;;5051560;28;20021;-82
2022/10/31 00:19:21;;;;;;;0.93;0.70;;;1.50;90.00;;;;;;5039453;28;20091;-80
2022/10/31 00:21:47;;;;;;;1.05;0.60;;;1.50;90.10;;;;;;5035268;28;20033;-82
2022/10/31 00:24:13;;;;;;;1.25;1.15;;;1.50;89.70;;;;;;5034361;28;20032;-82
2022/10/31 00:26:39;;;;;;;2.70;0.75;;;1.50;89.00;;;;;;5034410;28;20022;-82
2022/10/31 00:29:04;;;;;;;0.85;0.50;;;1.60;88.90;;;;;;5033580;28;20403;-82
2022/10/31 00:31:30;;;;;;;1.83;0.60;;;1.60;88.70;;;;;;5034890;28;20021;-82
2022/10/31 00:33:57;;;;;;;1.02;0.75;;;1.60;88.50;;;;;;5039586;28;20029;-83
2022/10/31 00:36:23;;;;;;;3.03;0.70;;;1.60;88.30;;;;;;5035703;28;20022;-82
2022/10/31 00:38:49;;;;;;;1.40;0.35;;;1.60;88.30;;;;;;5037467;28;20021;-82
2022/10/31 00:41:19;;;;;;;1.08;0.60;;;1.50;88.40;;;;;;5037561;28;20026;-80
2022/10/31 00:43:45;;;;;;;0.75;0.60;;;1.50;87.90;;;;;;5027589;28;20076;-81
2022/10/31 00:46:12;;;;;;;1.05;0.77;;;1.50;88.20;;;;;;5036195;28;20021;-81
2022/10/31 00:48:38;;;;;;;1.10;0.70;;;1.50;88.20;;;;;;5041916;28;20108;-81
2022/10/31 00:51:04;;;;;;;0.93;0.55;;;1.50;88.20;;;;;;5043461;28;20046;-82
2022/10/31 00:53:30;;;;;;;1.48;0.85;;;1.50;88.10;;;;;;5037804;28;20022;-82
2022/10/31 00:55:56;;;;;;;2.20;0.90;;;1.50;88.00;;;;;;5035812;28;20026;-80
2022/10/31 00:58:22;;;;;;;2.28;1.65;;;1.50;87.80;;;;;;5033598;28;20025;-82
2022/10/31 01:00:54;;;;;;;4.00;0.82;;;1.60;87.70;;;;;;5033905;28;20041;-81
2022/10/31 01:03:26;;;;;;;1.55;0.70;;;1.60;87.60;;;;;;5033559;28;20116;-81
2022/10/31 01:06:03;;;;;;;3.45;0.80;;;1.60;87.50;;;;;;5026185;28;20022;-81
2022/10/31 01:08:28;;;;;;;1.05;0.70;;;1.60;87.50;;;;;;5028498;28;20503;-82
2022/10/31 01:11:21;;;;;;;1.48;0.60;;;1.60;87.40;;;;;;5041333;28;20017;-81
2022/10/31 01:13:49;;;;;;;1.55;0.80;;;1.60;87.30;;;;;;5031572;28;20064;-81
2022/10/31 01:16:17;;;;;;;4.85;0.85;;;1.60;87.10;;;;;;5033558;28;20025;-82
2022/10/31 01:18:44;;;;;;;3.08;0.70;;;1.60;87.10;;;;;;5033345;28;20029;-82
2022/10/31 01:21:12;;;;;;;2.03;0.65;;;1.60;87.30;;;;;;5033132;28;20057;-80
2022/10/31 01:23:39;;;;;;;0.60;0.60;;;1.60;87.30;;;;;;5033214;28;20097;-81
2022/10/31 01:26:08;;;;;;;3.10;0.77;;;1.60;87.40;;;;;;5033023;28;20028;-81
2022/10/31 01:28:36;;;;;;;1.17;0.75;;;1.60;87.40;;;;;;5032089;28;20052;-81
2022/10/31 01:31:04;;;;;;;0.40;0.38;;;1.50;87.50;;;;;;5030225;28;20091;-81
2022/10/31 01:33:30;;;;;;;1.88;0.40;;;1.50;88.00;;;;;;5021829;28;20435;-81
2022/10/31 01:35:56;;;;;;;0.82;0.70;;;1.40;88.70;;;;;;5032976;28;20101;-81
2022/10/31 01:38:22;;;;;;;1.00;0.75;;;1.40;89.20;;;;;;5031611;28;20026;-81
2022/10/31 01:40:49;;;;;;;1.65;0.80;;;1.30;89.90;;;;;;5032758;28;20100;-80
2022/10/31 01:43:15;;;;;;;1.10;0.68;;;1.30;90.40;;;;;;5031774;28;20522;-82
2022/10/31 01:45:50;;;;;;;4.25;0.70;;;1.20;90.90;;;;;;5032989;28;20025;-82
2022/10/31 01:48:18;;;;;;;1.00;0.70;;;1.10;91.30;;;;;;5028789;28;20023;-81
2022/10/31 01:50:46;;;;;;;1.98;0.75;;;1.00;91.70;;;;;;5032507;28;20057;-81
2022/10/31 01:53:13;;;;;;;1.13;0.70;;;1.00;92.10;;;;;;5034258;28;20025;-81
2022/10/31 01:55:42;;;;;;;0.80;0.55;;;0.90;92.50;;;;;;5033408;28;20037;-82
2022/10/31 01:58:18;;;;;;;0.65;0.65;;;0.90;92.80;;;;;;5032879;28;20026;-83
2022/10/31 02:00:48;;;;;;;1.02;0.75;;;0.80;93.20;;;;;;5027675;28;20022;-82
2022/10/31 02:03:14;;;;;;;1.35;0.70;;;0.70;93.60;;;;;;5041030;28;20112;-82
2022/10/31 02:05:42;;;;;;;1.10;0.68;;;0.70;93.80;;;;;;5032014;28;20024;-82
2022/10/31 02:08:12;;;;;;;1.20;0.43;;;0.70;94.00;;;;;;5032530;28;20104;-83
2022/10/31 02:10:38;;;;;;;1.88;0.88;;;0.70;94.40;;;;;;5032462;28;20107;-81
2022/10/31 02:13:07;;;;;;;1.30;0.75;;;0.60;94.90;;;;;;5032324;28;20025;-80
2022/10/31 02:15:33;;;;;;;2.13;0.88;;;0.50;95.40;;;;;;5032313;28;20474;-81
2022/10/31 02:17:59;;;;;;;0.88;0.70;;;0.50;95.70;;;;;;5032525;28;20041;-81
2022/10/31 02:20:32;;;;;;;1.02;0.68;;;0.40;96.00;;;;;;5032509;28;20018;-81
2022/10/31 02:23:22;;;;;;;3.08;1.08;;;0.40;96.20;;;;;;5032729;28;20036;-80
2022/10/31 02:25:57;;;;;;;0.75;0.68;;;0.40;96.60;;;;;;5032876;28;20033;-80
2022/10/31 02:29:07;;;;;;;3.22;0.60;;;0.40;96.80;;;;;;5032958;28;20109;-80
2022/10/31 02:32:14;;;;;;;0.55;0.52;;;0.30;97.20;;;;;;4991116;28;20030;-82
2022/10/31 02:34:45;;;;;;;0.63;0.60;;;0.30;97.50;;;;;;4990911;28;20550;-83
2022/10/31 02:37:28;;;;;;;1.92;0.80;;;0.30;98.00;;;;;;4991022;28;20422;-81
2022/10/31 02:40:14;;;;;;;0.68;0.68;;;0.20;98.20;;;;;;4998827;28;20038;-83
2022/10/31 02:43:10;;;;;;;2.25;1.00;;;0.30;98.60;;;;;;4980124;28;20508;-80
2022/10/31 02:45:46;;;;;;;4.90;1.30;;;0.20;98.80;;;;;;4987949;28;20057;-81
2022/10/31 02:48:18;;;;;;;2.60;0.98;;;0.20;99.10;;;;;;5000816;28;20038;-82
2022/10/31 02:50:54;;;;;;;6.13;0.82;;;0.20;99.40;;;;;;4991646;28;20050;-81
2022/10/31 02:53:19;;;;;;;3.85;1.10;;;0.10;99.70;;;;;;4975297;28;20085;-81
2022/10/31 02:55:53;;;;;;;1.10;0.90;;;0.10;99.90;;;;;;4991322;28;20034;-83
2022/10/31 02:58:23;;;;;;;1.30;1.20;;;0.10;99.90;;;;;;4983099;28;20034;-83
2022/10/31 03:01:28;;;;;;;0.88;0.68;;;0.10;99.90;;;;;;4996951;28;20100;-84
2022/10/31 03:04:31;;;;;;;1.83;1.00;;;0.10;99.90;;;;;;5031340;28;20029;-83
2022/10/31 03:07:07;;;;;;;2.92;1.02;;;0.10;99.90;;;;;;5033261;28;20052;-83
2022/10/31 03:09:37;;;;;;;1.13;0.98;;;0.10;99.90;;;;;;5032396;28;20029;-84
2022/10/31 03:12:58;;;;;;;3.67;1.40;;;0.10;99.90;;;;;;5032056;28;20035;-83
2022/10/31 03:15:29;;;;;;;0.98;0.70;;;0.10;99.90;;;;;;5008884;28;20068;-85
2022/10/31 03:18:01;;;;;;;2.35;1.10;;;0.10;99.90;;;;;;5039903;28;20013;-84
2022/10/31 03:20:41;;;;;;;2.15;1.05;;;0.10;99.90;;;;;;5036776;28;20061;-84
2022/10/31 03:23:11;;;;;;;2.75;1.10;;;0.10;99.90;;;;;;5030241;28;20858;-83
2022/10/31 03:25:39;;;;;;;5.55;1.50;;;0.10;99.90;;;;;;5032011;28;20037;-83
2022/10/31 03:28:05;;;;;;;;;;;0.10;99.90;;;;;;5031171;28;20028;-82
2022/10/31 03:30:36;;;;;;;1.27;0.85;;;0.10;99.90;;;;;;5030703;28;19952;-81
2022/10/31 03:33:05;;;;;;;2.10;1.90;;;0.10;99.90;;;;;;5030684;28;20029;-85
2022/10/31 03:35:33;;;;;;;1.30;1.20;;;0.10;99.90;;;;;;5030815;28;20114;-83
2022/10/31 03:38:00;;;;;;;2.90;1.15;;;0.10;99.90;;;;;;5036026;28;20032;-81
2022/10/31 03:40:27;;;;;;;1.85;1.05;;;0.10;99.90;;;;;;5036894;28;20037;-84
2022/10/31 03:43:08;;;;;;;5.90;3.53;;;0.10;99.90;;;;;;5033039;28;20109;-83
2022/10/31 03:45:40;;;;;;;4.25;1.10;;;0.10;99.90;;;;;;5027670;28;20017;-83
2022/10/31 03:48:06;;;;;;;4.80;1.27;;;0.10;99.90;;;;;;5036268;28;20052;-83
2022/10/31 03:50:49;;;;;;;1.10;1.00;;;0.10;99.90;;;;;;5057737;28;20041;-83
2022/10/31 03:53:25;;;;;;;1.77;1.10;;;0.10;99.90;;;;;;5048270;28;20040;-83
2022/10/31 03:55:57;;;;;;;3.10;0.93;;;0.10;99.90;;;;;;5044693;28;20036;-82
2022/10/31 03:58:33;;;;;;;0.90;0.70;;;0.10;99.90;;;;;;5035832;28;20447;-84
2022/10/31 04:01:02;;;;;;;2.05;0.98;;;0.10;99.90;;;;;;5036437;28;20084;-83
2022/10/31 04:03:32;;;;;;;2.90;1.50;;;0.10;99.90;;;;;;5035087;28;20044;-82
2022/10/31 04:06:04;;;;;;;4.15;1.13;;;0.10;99.90;;;;;;5033565;28;20091;-82
2022/10/31 04:08:33;;;;;;;2.13;1.10;;;0.10;99.90;;;;;;5028263;28;20113;-84
2022/10/31 04:11:01;;;;;;;3.72;1.10;;;0.10;99.90;;;;;;5033609;28;20367;-82
2022/10/31 04:13:31;;;;;;;4.13;1.67;;;0.10;99.90;;;;;;5030686;28;20030;-86
2022/10/31 04:15:58;;;;;;;3.15;1.40;;;0.10;99.90;;;;;;5044279;28;20030;-84
2022/10/31 04:18:24;;;;;;;3.40;1.17;;;0.20;99.90;;;;;;5032771;28;20075;-85
2022/10/31 04:21:01;;;;;;;1.85;1.13;;;0.20;99.90;;;;;;5041325;28;20026;-82
2022/10/31 04:23:27;;;;;;;1.75;0.90;;;0.20;99.90;;;;;;5025374;28;20042;-82
2022/10/31 04:25:53;;;;;;;2.30;1.13;;;0.20;99.90;;;;;;5034908;28;20021;-83
2022/10/31 04:28:19;;;;;;;1.80;1.20;;;0.20;99.90;;;;;;5035065;28;20497;-81
2022/10/31 04:30:47;;;;;;;3.63;1.20;;;0.20;99.90;;;;;;5040505;28;20082;-83
2022/10/31 04:33:14;;;;;;;4.68;1.88;;;0.20;99.90;;;;;;5036558;28;20026;-82
2022/10/31 04:35:40;;;;;;;4.30;1.25;;;0.20;99.90;;;;;;5025793;28;20052;-81
2022/10/31 04:38:06;;;;;;;2.30;1.00;;;0.20;99.90;;;;;;5033641;28;20033;-78
2022/10/31 04:40:32;;;;;;;3.17;1.80;;;0.20;99.90;;;;;;5035610;28;20514;-81
2022/10/31 04:42:58;;;;;;;2.33;1.00;;;0.20;99.90;;;;;;5043527;28;20140;-80
2022/10/31 04:45:24;;;;;;;2.72;0.95;;;0.20;99.90;;;;;;5036601;28;20022;-81
2022/10/31 04:47:49;;;;;;;3.58;1.40;;;0.20;99.90;;;;;;5033181;28;20074;-81
2022/10/31 04:50:15;;;;;;;2.22;1.30;;;0.20;99.90;;;;;;5034285;28;20057;-80
2022/10/31 04:52:43;;;;;;;2.65;1.15;;;0.20;99.90;;;;;;5026881;28;20022;-79
2022/10/31 04:55:13;;;;;;;2.08;1.13;;;0.20;99.90;;;;;;5031143;28;20026;-80
2022/10/31 04:57:46;;;;;;;2.08;1.10;;;0.20;99.90;;;;;;5034208;28;20079;-80
2022/10/31 05:00:14;;;;;;;2.75;1.38;;;0.30;99.90;;;;;;5033843;28;20421;-82
2022/10/31 05:02:52;;;;;;;;;;;0.20;99.90;;;;;;5029715;28;20077;-80
2022/10/31 05:05:22;;;;;;;1.85;1.20;;;0.30;99.90;;;;;;5028514;28;20294;-83
2022/10/31 05:07:48;;;;;;;1.58;1.23;;;0.20;99.90;;;;;;5033858;28;20028;-81
2022/10/31 05:10:18;;;;;;;3.35;1.20;;;0.20;99.90;;;;;;5034396;28;20072;-81
2022/10/31 05:12:52;;;;;;;1.45;1.20;;;0.20;99.90;;;;;;5033775;28;20022;-82
2022/10/31 05:15:19;;;;;;;2.25;1.17;;;0.20;99.90;;;;;;5033763;28;20029;-81
2022/10/31 05:17:45;;;;;;;1.52;1.10;;;0.20;99.90;;;;;;5033865;28;20492;-83
2022/10/31 05:20:12;;;;;;;4.75;2.05;;;0.20;99.90;;;;;;5036643;28;20053;-80
2022/10/31 05:22:45;;;;;;;1.30;1.08;;;0.20;99.90;;;;;;5028274;28;20399;-83
2022/10/31 05:25:11;;;;;;;1.80;1.13;;;0.30;99.90;;;;;;5031631;28;20029;-83
2022/10/31 05:27:41;;;;;;;1.83;1.23;;;0.30;99.90;;;;;;5033682;28;20394;-81
2022/10/31 05:30:09;;;;;;;2.78;1.65;;;0.30;99.90;;;;;;5033411;28;20033;-82
2022/10/31 05:32:43;;;;;;;3.08;1.50;;;0.30;99.90;;;;;;5028979;28;20050;-80
2022/10/31 05:35:13;;;;;;;1.85;1.10;;;0.30;99.90;;;;;;5049760;28;20025;-81
2022/10/31 05:37:39;;;;;;;5.38;1.55;;;0.30;99.90;;;;;;5047810;28;20049;-82
2022/10/31 05:40:08;;;;;;;1.75;1.33;;;0.30;99.90;;;;;;5035152;28;20025;-83
2022/10/31 05:42:34;;;;;;;2.22;1.80;;;0.30;99.90;;;;;;5033535;28;20120;-83
2022/10/31 05:45:00;;;;;;;3.15;1.58;;;0.30;99.90;;;;;;5034042;28;20025;-81
2022/10/31 05:47:26;;;;;;;1.38;1.08;;;0.30;99.90;;;;;;5022346;28;20025;-83
2022/10/31 05:49:55;;;;;;;2.70;1.30;;;0.40;99.90;;;;;;5033820;28;20093;-84
2022/10/31 05:52:21;;;;;;;4.25;1.50;;;0.40;99.90;;;;;;5036024;28;20386;-83
2022/10/31 05:54:46;;;;;;;2.45;1.60;;;0.40;99.90;;;;;;5039418;28;20025;-81
2022/10/31 05:57:12;;;;;;;2.25;1.27;;;0.30;99.90;;;;;;5047940;28;20497;-83
2022/10/31 05:59:38;;;;;;;4.18;1.52;;;0.40;99.90;;;;;;5032860;28;20033;-83
2022/10/31 06:02:04;;;;;;;2.03;1.23;;;0.40;99.90;;;;;;5033022;28;20040;-83
2022/10/31 06:04:30;;;;;;;2.22;1.30;;;0.40;99.90;;;;;;5023639;28;20025;-84
2022/10/31 06:06:57;;;;;;;3.67;1.80;;;0.40;99.90;;;;;;5029808;28;20025;-83
2022/10/31 06:09:23;;;;;;;3.22;1.48;;;0.40;99.90;;;;;;5033082;28;20036;-83
2022/10/31 06:11:48;;;;;;;3.40;1.67;;;0.40;99.90;;;;;;5033674;28;20025;-85
2022/10/31 06:14:14;;;;;;;5.35;1.63;;;0.50;99.90;;;;;;5033258;28;20561;-83
2022/10/31 06:16:40;;;;;;;4.55;2.58;;;0.50;99.90;;;;;;5033001;28;20029;-83
2022/10/31 06:19:06;;;;;;;3.75;1.63;;;0.50;99.90;;;;;;5031407;28;20042;-84
2022/10/31 06:21:32;;;;;;;2.60;1.33;;;0.50;99.90;;;;;;5032662;28;20025;-83
2022/10/31 06:24:00;;;;;;;2.97;1.25;;;0.50;99.90;;;;;;5033213;28;20083;-84
2022/10/31 06:26:26;;;;;;;2.78;2.33;;;0.50;99.90;;;;;;5031442;28;20021;-82
2022/10/31 06:28:52;;;;;;;2.70;1.30;;;0.50;99.90;;;;;;5033395;28;20072;-83
2022/10/31 06:31:18;;;;;;;2.85;1.17;;;0.50;99.90;;;;;;5033209;28;20178;-83
2022/10/31 06:33:44;;;;;;;3.88;2.10;;;0.50;99.90;;;;;;5032491;28;20029;-84
2022/10/31 06:36:10;;;;;;;1.30;1.20;;;0.50;99.90;;;;;;5034627;28;20029;-81
2022/10/31 06:38:36;;;;;;;1.63;1.33;;;0.60;99.90;;;;;;5034768;28;20022;-81
2022/10/31 06:41:04;;;;;;;1.80;1.63;;;0.60;99.90;;;;;;5039832;28;20032;-81
2022/10/31 06:43:29;;;;;;;2.08;1.60;;;0.60;99.90;;;;;;5035504;28;20116;-80
2022/10/31 06:45:56;;;;;;;4.35;1.88;;;0.60;99.90;;;;;;5034888;28;20092;-83
2022/10/31 06:48:22;;;;;;;3.45;1.60;;;0.70;99.90;;;;;;5033915;28;20824;-83
2022/10/31 06:50:48;;;;;;;2.55;1.73;;;0.80;99.90;;;;;;5031461;28;20108;-82
2022/10/31 06:53:14;;;;;;;3.05;1.70;;;0.80;99.90;;;;;;5046594;28;20151;-86
2022/10/31 06:55:41;;;;;;;3.53;2.25;;;0.90;99.90;;;;;;5043268;28;20069;-82
2022/10/31 06:58:09;;;;;;;3.95;2.40;;;1.00;99.90;;;;;;5038598;28;20022;-84
2022/10/31 07:00:36;;;;;;;1.90;1.42;;;1.00;99.90;;;;;;5043172;28;20025;-83
2022/10/31 07:03:09;;;;;;;2.50;1.60;;;1.10;99.90;;;;;;5039833;28;20029;-85
2022/10/31 07:05:35;;;;;;;3.45;1.48;;;1.20;99.90;;;;;;5052059;28;20021;-84
2022/10/31 07:08:04;;;;;;;2.60;1.30;;;1.30;99.90;;;;;;5048088;28;20026;-82
2022/10/31 07:10:32;;;;;;;2.15;1.58;;;1.30;99.90;;;;;;5037637;28;20025;-82
2022/10/31 07:13:03;;;;;;;3.95;1.67;;;1.50;99.90;;;;;;5037644;28;20035;-83
2022/10/31 07:15:32;;;;;;;2.67;1.50;;;1.60;99.90;;;;;;5046006;28;20028;-84
2022/10/31 07:18:03;;;;;;;4.57;1.55;;;1.60;99.90;;;;;;5031138;28;20033;-84
2022/10/31 07:20:29;;;;;;;4.20;2.47;;;1.70;99.90;;;;;;5042620;28;20559;-82
2022/10/31 07:22:57;;;;;;;2.35;1.50;;;1.70;99.90;;;;;;5046437;28;20041;-84
2022/10/31 07:25:24;;;;;;;2.78;2.20;;;1.70;99.90;;;;;;5056425;28;20014;-87
2022/10/31 07:27:50;;;;;;;2.15;1.65;;;1.70;99.90;;;;;;5051358;28;20025;-84
2022/10/31 07:30:18;;;;;;;3.20;1.90;;;1.70;99.90;;;;;;5049782;28;20018;-86
2022/10/31 07:32:50;;;;;;;3.28;1.48;;;1.70;99.90;;;;;;5037934;28;20383;-84
2022/10/31 07:35:20;;;;;;;2.28;1.65;;;1.70;99.90;;;;;;5043943;28;20025;-85
2022/10/31 07:37:47;;;;;;;2.80;2.30;;;1.80;99.90;;;;;;5038707;28;20021;-86
2022/10/31 07:40:13;;;;;;;3.97;1.50;;;1.80;99.90;;;;;;5039168;28;20037;-85
2022/10/31 07:42:43;;;;;;;3.95;1.52;;;1.90;99.90;;;;;;5039794;28;20509;-85
2022/10/31 07:45:14;;;;;;;6.13;2.95;;;1.90;99.90;;;;;;5029786;28;20037;-85
2022/10/31 07:47:45;;;;;;;2.30;1.52;;;2.00;99.90;;;;;;5041650;28;20498;-85
2022/10/31 07:50:13;;;;;;;2.80;1.80;;;2.10;99.90;;;;;;5036324;28;20026;-86
2022/10/31 07:52:39;;;;;;;2.72;1.70;;;2.20;99.90;;;;;;5018586;28;20026;-85
2022/10/31 07:55:06;;;;;;;2.95;1.80;;;2.20;99.90;;;;;;5034298;28;20055;-84
2022/10/31 07:57:32;;;;;;;5.40;1.73;;;2.30;99.90;;;;;;5038442;28;20094;-87
2022/10/31 07:59:58;;;;;;;1.85;1.50;;;2.30;99.90;;;;;;5034531;28;20390;-85
2022/10/31 08:02:25;;;;;;;4.22;2.17;;;2.10;99.90;;;;;;5034301;28;20041;-84
2022/10/31 08:04:52;;;;;;;5.45;2.13;;;2.00;99.90;;;;;;5035826;28;20394;-86
2022/10/31 08:07:18;;;;;;;4.07;1.83;;;2.00;99.90;;;;;;5034924;28;20037;-84
2022/10/31 08:09:44;;;;;;;3.20;1.95;;;2.00;99.90;;;;;;5030186;28;20071;-86
2022/10/31 08:12:11;;;;;;;2.65;1.95;;;2.10;99.90;;;;;;5039365;28;20071;-85
2022/10/31 08:14:37;;;;;;;2.78;1.80;;;2.10;99.90;;;;;;5039898;28;20478;-84
2022/10/31 08:17:02;;;;;;;2.85;1.67;;;2.20;99.90;;;;;;5055642;28;20029;-86
2022/10/31 08:19:28;;;;;;;1.52;1.23;;;2.10;99.90;;;;;;5041378;28;20509;-86
2022/10/31 08:21:55;;;;;;;3.40;1.67;;;2.10;99.90;;;;;;5039479;28;20382;-85
2022/10/31 08:24:24;;;;;;;5.40;2.30;;;2.20;99.90;;;;;;5040746;28;20025;-85
2022/10/31 08:26:50;;;;;;;2.10;1.45;;;2.30;99.90;;;;;;5039536;28;20075;-86
2022/10/31 08:29:16;;;;;;;4.55;1.95;;;2.30;99.90;;;;;;5039994;28;20021;-86
2022/10/31 08:31:43;;;;;;;5.03;2.03;;;2.30;99.90;;;;;;5036448;28;20037;-86
2022/10/31 08:34:09;;;;;;;2.83;1.48;;;2.50;99.90;;;;;;5035129;28;20056;-85
2022/10/31 08:36:35;;;;;;;2.80;1.65;;;2.60;99.90;;;;;;5044077;28;20024;-89
2022/10/31 08:39:07;;;;;;;1.40;1.20;;;2.80;99.80;;;;;;5030796;28;20562;-84
2022/10/31 08:41:35;;;;;;;2.60;1.45;;;2.90;99.00;;;;;;5051636;28;20018;-85
2022/10/31 08:44:01;;;;;;;3.20;1.40;;;2.90;98.50;;;;;;5050838;28;20037;-86
2022/10/31 08:46:28;;;;;;;1.63;1.30;;;2.90;98.50;;;;;;5040784;28;20395;-84
2022/10/31 08:48:56;;;;;;;2.45;1.35;;;2.90;97.80;;;;;;5036528;28;20422;-85
2022/10/31 08:51:32;;;;;;;2.75;1.80;;;2.80;98.00;;;;;;5026207;28;20049;-84
2022/10/31 08:53:58;;;;;;;2.80;2.00;;;2.90;98.20;;;;;;5041410;28;20096;-86
2022/10/31 08:56:27;;;;;;;4.15;2.10;;;2.90;98.10;;;;;;5038371;28;20021;-84
2022/10/31 08:58:53;;;;;;;3.53;2.33;;;2.90;97.40;;;;;;5040035;28;20021;-86
2022/10/31 09:01:20;;;;;;;4.10;2.20;;;2.80;97.00;;;;;;5033868;28;20032;-85
2022/10/31 09:03:46;;;;;;;2.45;1.65;;;2.80;97.00;;;;;;5048858;28;20081;-85
2022/10/31 09:06:12;;;;;;;3.35;2.50;;;2.80;96.50;;;;;;5039275;28;20044;-86
2022/10/31 09:08:38;;;;;;;5.93;3.08;;;2.80;96.30;;;;;;5039938;28;20033;-86
2022/10/31 09:11:04;;;;;;;2.10;1.42;;;2.80;96.20;;;;;;5049366;28;20022;-84
2022/10/31 09:13:36;;;;;;;3.55;2.28;;;2.80;95.70;;;;;;5043495;28;20073;-86
2022/10/31 09:16:04;;;;;;;3.70;2.30;;;2.80;96.00;;;;;;5027503;28;20120;-84
2022/10/31 09:18:31;;;;;;;4.72;1.55;;;2.90;95.70;;;;;;5040850;28;20395;-84
2022/10/31 09:20:59;;;;;;;4.43;2.40;;;2.90;95.20;;;;;;5040684;28;20650;-85
2022/10/31 09:23:25;;;;;;;3.72;2.00;;;3.00;95.00;;;;;;5039758;28;20034;-85
2022/10/31 09:26:00;;;;;;;4.50;2.40;;;3.00;94.50;;;;;;5032212;28;20029;-87
2022/10/31 09:28:34;;;;;;;2.33;1.83;;;3.00;94.20;;;;;;5028256;28;20111;-84
2022/10/31 09:31:02;;;;;;;2.40;1.80;;;3.10;93.60;;;;;;5041463;28;20122;-85
2022/10/31 09:33:30;;;;;;;4.43;1.90;;;3.20;92.80;;;;;;5035428;28;20080;-85
2022/10/31 09:36:03;;;;;;;4.55;2.17;;;3.20;92.20;;;;;;5029978;28;20048;-85
2022/10/31 09:38:29;;;;;;;4.45;2.30;;;3.30;92.50;;;;;;5034943;28;20024;-85
2022/10/31 09:41:28;;;;;;;3.22;1.90;;;3.20;92.30;;;;;;5036112;28;20094;-87
2022/10/31 09:44:24;;;;;;;2.22;1.67;;;3.20;92.50;;;;;;5042021;28;20037;-85
2022/10/31 09:47:26;;;;;;;1.93;1.30;;;3.20;92.70;;;;;;5043344;28;20029;-86
2022/10/31 09:50:07;;;;;;;3.25;2.00;;;3.40;92.80;;;;;;5037216;28;20084;-85
2022/10/31 09:52:36;;;;;;;1.85;1.42;;;3.40;92.50;;;;;;5038453;28;20187;-86
2022/10/31 09:55:32;;;;;;;1.73;1.23;;;3.40;92.30;;;;;;5040457;28;20029;-86
2022/10/31 09:57:59;;;;;;;2.97;1.73;;;3.30;92.60;;;;;;5030636;28;20037;-84
2022/10/31 10:00:25;;;;;;;2.67;1.55;;;3.40;93.00;;;;;;5036407;28;20017;-85
2022/10/31 10:03:23;;;;;;;2.70;1.02;;;3.90;93.00;;;;;;5045091;28;20037;-87
2022/10/31 10:06:04;;;;;;;2.00;1.38;;;3.90;92.00;;;;;;5029121;28;20483;-85
2022/10/31 10:08:38;;;;;;;3.55;0.80;;;3.80;92.00;;;;;;5039044;28;20033;-85
2022/10/31 10:11:35;;;;;;;2.00;1.27;;;3.70;92.70;;;;;;5035988;28;20049;-86
2022/10/31 10:14:23;;;;;;;1.95;1.23;;;3.50;93.50;;;;;;5038027;28;20092;-86
2022/10/31 10:17:00;;;;;;;2.15;1.40;;;3.40;94.20;;;;;;5038284;28;20496;-88
2022/10/31 10:19:38;;;;;;;2.92;2.13;;;3.30;94.90;;;;;;5045053;28;20034;-86
2022/10/31 10:22:27;;;;;;;1.98;1.05;;;3.50;95.60;;;;;;5048346;28;20033;-87
2022/10/31 10:25:16;;;;;;;2.17;1.10;;;3.70;94.90;;;;;;5033885;28;20034;-88
2022/10/31 10:27:52;;;;;;;1.88;1.20;;;3.70;94.30;;;;;;5031167;28;20019;-87
2022/10/31 10:30:43;;;;;;;1.65;0.90;;;3.60;94.20;;;;;;5036991;28;20033;-87
2022/10/31 10:33:19;;;;;;;1.63;1.23;;;3.60;94.30;;;;;;5038855;28;20025;-85
2022/10/31 10:35:48;;;;;;;1.73;0.93;;;3.60;94.60;;;;;;5045036;28;20025;-86
2022/10/31 10:38:35;;;;;;;2.35;1.55;;;3.60;94.80;;;;;;5048057;28;20433;-87
2022/10/31 10:41:09;;;;;;;1.48;0.90;;;3.60;95.00;;;;;;5039491;28;20029;-88
2022/10/31 10:43:37;;;;;;;2.67;1.25;;;3.70;94.80;;;;;;5037881;28;20026;-88
2022/10/31 10:49:28;;;;;;;1.05;0.80;;;3.80;93.60;;;;;;5041652;28;20398;-85
2022/10/31 10:52:25;;;;;;;0.95;0.60;;;3.80;93.30;;;;;;5034743;28;20043;-86
2022/10/31 10:55:09;;;;;;;0.73;0.73;;;3.80;93.30;;;;;;5047821;28;20022;-84
2022/10/31 10:57:50;;;;;;;0.70;0.70;;;3.70;93.10;;;;;;5042574;28;20475;-85
2022/10/31 11:00:34;;;;;;;2.13;0.80;;;3.70;93.40;;;;;;5049743;28;20033;-84
2022/10/31 11:03:00;;;;;;;0.63;0.60;;;3.70;93.50;;;;;;5038897;28;20414;-84
2022/10/31 11:05:30;;;;;;;1.23;0.70;;;3.80;93.40;;;;;;5035281;28;20518;-86
2022/10/31 11:07:56;;;;;;;2.53;0.70;;;3.80;93.00;;;;;;5037025;28;20029;-86
2022/10/31 11:10:23;;;;;;;0.60;0.50;;;3.80;93.10;;;;;;5040056;28;20017;-87
2022/10/31 11:13:21;;;;;;;1.92;1.13;;;3.80;93.10;;;;;;5035650;28;20129;-85
2022/10/31 11:16:06;;;;;;;1.33;0.95;;;3.70;93.30;;;;;;5033797;28;20028;-86
2022/10/31 11:18:37;;;;;;;1.05;0.73;;;3.60;93.70;;;;;;5035306;28;20100;-85
2022/10/31 11:21:07;;;;;;;2.95;1.45;;;3.60;93.80;;;;;;5036973;28;20037;-84
2022/10/31 11:23:33;;;;;;;2.28;1.20;;;3.50;93.90;;;;;;5040203;28;20040;-84
2022/10/31 11:26:18;;;;;;;1.17;0.85;;;3.50;94.00;;;;;;5038151;28;20378;-86
2022/10/31 11:28:57;;;;;;;1.73;1.13;;;3.50;94.00;;;;;;5035082;28;20125;-85
2022/10/31 11:31:25;;;;;;;2.83;0.95;;;3.50;93.90;;;;;;5035511;28;21809;-84
2022/10/31 11:34:02;;;;;;;2.22;0.90;;;3.50;94.00;;;;;;5030823;28;20125;-86
2022/10/31 11:36:34;;;;;;;;;;;3.50;93.80;;;;;;5017813;28;20483;-85
2022/10/31 11:39:03;;;;;;;9.88;1.60;;;3.50;93.90;;;;;;5035288;28;19911;-85
2022/10/31 11:41:38;;;;;;;1.13;0.70;;;3.40;94.00;;;;;;5021206;28;20076;-87
2022/10/31 11:44:32;;;;;;;0.65;0.63;;;3.40;94.10;;;;;;5034722;28;20045;-85
2022/10/31 11:47:04;;;;;;;1.20;0.93;;;3.40;94.20;;;;;;5037141;28;20057;-86
2022/10/31 11:49:56;;;;;;;0.98;0.85;;;3.40;94.20;;;;;;5038420;28;20383;-85
2022/10/31 11:52:31;;;;;;;1.60;1.00;;;3.40;94.00;;;;;;5022026;28;20052;-86
2022/10/31 11:55:12;;;;;;;3.03;1.20;;;3.40;93.90;;;;;;5032702;28;20018;-85
2022/10/31 11:57:53;;;;;;;0.90;0.85;;;3.30;94.00;;;;;;5027474;28;20033;-88
2022/10/31 12:00:25;;;;;;;1.23;1.02;;;3.40;94.00;;;;;;5040107;28;20053;-85
2022/10/31 12:03:03;;;;;;;1.92;0.73;;;3.30;93.90;;;;;;5038665;28;20107;-85
2022/10/31 12:05:32;;;;;;;3.95;0.98;;;3.30;94.10;;;;;;5040869;28;20041;-84
2022/10/31 12:07:59;;;;;;;1.00;0.70;;;3.40;94.20;;;;;;5043466;28;20057;-85
2022/10/31 12:10:51;;;;;;;0.70;0.70;;;3.40;94.10;;;;;;5048839;28;20105;-84
2022/10/31 12:13:55;;;;;;;2.03;0.73;;;3.40;94.20;;;;;;5041814;28;20022;-86
2022/10/31 12:17:08;;;;;;;1.45;0.90;;;3.40;94.10;;;;;;5033100;28;20034;-83
2022/10/31 12:19:43;;;;;;;1.52;1.00;;;3.30;94.30;;;;;;5041786;28;20041;-86
2022/10/31 12:22:40;;;;;;;1.02;0.90;;;3.30;94.50;;;;;;5040561;28;20033;-83
2022/10/31 12:25:48;;;;;;;1.55;0.90;;;3.30;94.70;;;;;;5029469;28;20028;-85
2022/10/31 12:28:44;;;;;;;2.10;1.00;;;3.40;94.80;;;;;;5053865;28;20030;-85
2022/10/31 12:31:45;;;;;;;2.33;1.80;;;3.30;95.10;;;;;;5053636;28;20490;-86
2022/10/31 12:35:09;;;;;;;4.47;1.60;;;3.30;95.40;;;;;;5039645;28;20493;-84
2022/10/31 12:37:57;;;;;;;2.55;1.20;;;3.20;95.70;;;;;;4940563;29;20139;-88
2022/10/31 12:40:42;;;;;;;1.63;1.20;;;3.20;96.10;;;;;;4927255;29;20031;-85
2022/10/31 12:43:35;;;;;;;2.53;1.70;;;3.20;96.50;;;;;;4929385;29;20083;-85
2022/10/31 12:46:04;;;;;;;1.58;1.08;;;3.10;96.80;;;;;;4926775;28;20030;-86
2022/10/31 12:48:46;;;;;;;1.35;1.17;;;3.10;97.10;;;;;;4959962;28;20082;-83
2022/10/31 12:51:25;;;;;;;2.10;1.30;;;3.10;97.30;;;;;;4937739;29;20061;-85
2022/10/31 12:54:18;;;;;;;2.95;1.30;;;3.10;97.40;;;;;;4921622;29;20037;-86
2022/10/31 12:57:04;;;;;;;2.28;1.05;;;3.20;97.30;;;;;;4924279;29;20031;-86
2022/10/31 12:59:38;;;;;;;2.15;1.25;;;3.20;97.20;;;;;;4923918;29;20075;-86
2022/10/31 13:02:23;;;;;;;1.83;1.17;;;3.20;97.10;;;;;;4922912;29;20043;-84
2022/10/31 13:05:32;;;;;;;1.40;1.30;;;3.20;97.00;;;;;;4921083;29;20043;-87
2022/10/31 13:08:20;;;;;;;2.38;1.20;;;3.20;97.00;;;;;;4902852;29;20048;-85
2022/10/31 13:10:52;;;;;;;4.65;1.35;;;3.20;97.00;;;;;;4917124;28;20038;-84
2022/10/31 13:13:51;;;;;;;1.30;1.05;;;3.30;96.90;;;;;;4988237;28;20046;-87
2022/10/31 13:16:21;;;;;;;2.33;1.58;;;3.30;96.80;;;;;;4988300;28;20602;-86
2022/10/31 13:19:13;;;;;;;2.35;1.13;;;3.30;96.80;;;;;;5001531;28;20026;-84
2022/10/31 13:22:06;;;;;;;1.95;1.38;;;3.40;96.90;;;;;;4998378;28;20058;-86
2022/10/31 13:25:13;;;;;;;2.90;1.63;;;3.40;96.90;;;;;;4999901;28;20034;-83
2022/10/31 13:27:52;;;;;;;2.25;1.42;;;3.50;96.60;;;;;;4970680;28;20105;-82
2022/10/31 13:30:27;;;;;;;3.20;1.55;;;3.50;96.50;;;;;;5009324;28;20045;-84
2022/10/31 13:33:19;;;;;;;;;;;;;;;;;;;;;